createdAt,value
2018-02-08T00:00:16.514Z,34.83
2018-02-08T00:02:45.858Z,37.55
2018-02-08T00:05:15.210Z,36.38
2018-02-08T00:07:44.554Z,38.33
2018-02-08T00:19:50.918Z,37.97
2018-02-08T00:22:38.052Z,35.45
2018-02-08T00:25:07.394Z,34.85
2018-02-08T00:27:36.765Z,34.95
2018-02-08T00:30:06.106Z,37.38
2018-02-08T00:32:35.439Z,34.22
2018-02-08T00:35:04.800Z,34.75
2018-02-08T00:37:34.131Z,37.08
2018-02-08T00:40:04.379Z,36.65
2018-02-08T00:42:33.690Z,37.65
2018-02-08T00:45:03.124Z,38.25
2018-02-08T00:47:32.466Z,35.53
2018-02-08T00:50:02.605Z,37.15
2018-02-08T00:52:31.970Z,37.00
2018-02-08T00:55:01.374Z,38.38
2018-02-08T00:57:30.722Z,35.50
2018-02-08T01:00:00.098Z,33.92
2018-02-08T01:02:30.222Z,37.88
2018-02-08T01:05:00.209Z,37.53
2018-02-08T01:07:29.561Z,35.85
2018-02-08T01:09:58.921Z,36.05
2018-02-08T01:12:29.091Z,35.38
2018-02-08T01:14:58.477Z,37.47
2018-02-08T01:17:27.826Z,37.42
2018-02-08T01:19:57.219Z,36.17
2018-02-08T01:22:26.578Z,36.88
2018-02-08T01:24:55.944Z,36.75
2018-02-08T01:27:25.324Z,38.10
2018-02-08T01:29:54.684Z,36.65
2018-02-08T01:32:24.070Z,37.70
2018-02-08T01:34:54.181Z,34.75
2018-02-08T01:37:23.625Z,37.67
2018-02-08T01:39:52.986Z,33.83
2018-02-08T01:42:22.359Z,34.80
2018-02-08T01:44:51.737Z,36.17
2018-02-08T01:47:21.081Z,36.63
2018-02-08T01:49:50.446Z,37.72
2018-02-08T01:52:19.823Z,38.47
2018-02-08T01:54:49.237Z,34.50
2018-02-08T01:57:18.596Z,36.13
2018-02-08T01:59:47.985Z,37.85
2018-02-08T02:02:17.371Z,40.03
2018-02-08T02:04:46.727Z,39.40
2018-02-08T02:07:16.120Z,39.03
2018-02-08T02:09:46.247Z,37.00
2018-02-08T02:12:17.105Z,40.08
2018-02-08T02:14:46.463Z,39.75
2018-02-08T02:17:16.719Z,38.97
2018-02-08T02:19:46.103Z,39.35
2018-02-08T02:22:16.921Z,40.60
2018-02-08T02:24:46.283Z,38.80
2018-02-08T02:27:15.631Z,39.67
2018-02-08T02:29:45.000Z,38.55
2018-02-08T02:32:14.356Z,38.00
2018-02-08T02:34:44.493Z,37.50
2018-02-08T02:37:13.870Z,40.88
2018-02-08T02:39:43.238Z,39.33
2018-02-08T02:42:12.613Z,39.30
2018-02-08T02:44:41.967Z,40.42
2018-02-08T02:47:11.333Z,38.28
2018-02-08T02:49:40.689Z,41.08
2018-02-08T02:52:10.083Z,40.55
2018-02-08T02:54:40.216Z,39.20
2018-02-08T02:57:09.602Z,38.42
2018-02-08T02:59:39.767Z,37.85
2018-02-08T03:02:09.159Z,39.15
2018-02-08T03:04:38.503Z,41.88
2018-02-08T03:07:07.867Z,38.92
2018-02-08T03:09:37.265Z,37.30
2018-02-08T03:12:06.613Z,39.17
2018-02-08T03:14:35.985Z,41.95
2018-02-08T03:17:05.377Z,39.90
2018-02-08T03:19:34.711Z,38.45
2018-02-08T03:22:04.087Z,39.42
2018-02-08T03:24:33.452Z,39.03
2018-02-08T03:27:02.813Z,38.88
2018-02-08T03:29:32.196Z,42.38
2018-02-08T03:32:01.555Z,41.58
2018-02-08T03:34:30.977Z,40.72
2018-02-08T03:37:00.327Z,39.63
2018-02-08T03:39:29.677Z,42.13
2018-02-08T03:41:59.174Z,40.35
2018-02-08T03:44:28.516Z,39.63
2018-02-08T03:46:57.874Z,41.65
2018-02-08T03:49:27.257Z,42.08
2018-02-08T03:51:57.411Z,44.65
2018-02-08T03:54:26.755Z,40.75
2018-02-08T03:56:56.136Z,40.53
2018-02-08T03:59:25.502Z,38.65
2018-02-08T04:01:54.890Z,40.90
2018-02-08T04:04:25.001Z,40.45
2018-02-08T04:06:54.362Z,39.15
2018-02-08T04:09:23.685Z,44.42
2018-02-08T04:11:53.058Z,39.15
2018-02-08T04:14:22.400Z,43.05
2018-02-08T04:16:51.891Z,41.78
2018-02-08T04:19:21.264Z,41.58
2018-02-08T04:21:50.621Z,40.72
2018-02-08T04:24:20.821Z,41.30
2018-02-08T04:26:50.195Z,42.50
2018-02-08T04:29:19.548Z,42.13
2018-02-08T04:31:49.712Z,43.63
2018-02-08T04:34:19.684Z,45.10
2018-02-08T04:36:49.873Z,41.55
2018-02-08T04:39:37.032Z,42.13
2018-02-08T04:42:24.928Z,42.45
2018-02-08T04:48:08.423Z,42.50
2018-02-08T04:50:38.688Z,45.00
2018-02-08T04:53:08.045Z,40.92
2018-02-08T04:55:38.613Z,41.90
2018-02-08T04:58:07.958Z,41.80
2018-02-08T05:00:37.361Z,41.33
2018-02-08T05:03:06.736Z,47.55
2018-02-08T05:05:36.090Z,43.83
2018-02-08T05:08:06.231Z,44.08
2018-02-08T05:10:35.607Z,42.03
2018-02-08T05:13:05.788Z,44.35
2018-02-08T05:15:35.127Z,44.47
2018-02-08T05:18:05.272Z,41.97
2018-02-08T05:20:34.635Z,44.13
2018-02-08T05:23:04.003Z,46.55
2018-02-08T05:25:33.488Z,42.40
2018-02-08T05:28:02.847Z,46.20
2018-02-08T05:30:32.979Z,44.08
2018-02-08T05:33:02.390Z,44.67
2018-02-08T05:35:31.735Z,45.30
2018-02-08T05:38:01.121Z,45.15
2018-02-08T05:40:30.475Z,44.95
2018-02-08T05:43:00.644Z,45.00
2018-02-08T05:45:30.002Z,46.63
2018-02-08T05:48:00.170Z,45.97
2018-02-08T05:50:29.526Z,45.25
2018-02-08T05:52:59.700Z,52.25
2018-02-08T05:55:29.039Z,45.33
2018-02-08T05:57:58.646Z,45.47
2018-02-08T06:00:28.018Z,44.00
2018-02-08T06:02:57.383Z,44.60
2018-02-08T06:05:26.740Z,46.15
2018-02-08T06:07:56.139Z,43.53
2018-02-08T06:10:25.492Z,45.00
2018-02-08T06:12:54.847Z,45.20
2018-02-08T06:15:24.225Z,45.65
2018-02-08T06:17:53.597Z,44.50
2018-02-08T06:20:22.975Z,44.35
2018-02-08T06:22:53.084Z,43.85
2018-02-08T06:25:22.475Z,45.10
2018-02-08T06:27:51.836Z,44.38
2018-02-08T06:30:21.181Z,46.00
2018-02-08T06:32:51.314Z,46.08
2018-02-08T06:35:21.450Z,44.78
2018-02-08T06:37:51.600Z,46.40
2018-02-08T06:40:20.944Z,43.80
2018-02-08T06:42:50.284Z,46.03
2018-02-08T06:45:19.672Z,44.85
2018-02-08T06:47:49.017Z,42.78
2018-02-08T06:50:18.393Z,45.88
2018-02-08T06:52:47.738Z,45.88
2018-02-08T06:55:17.110Z,44.25
2018-02-08T06:57:46.479Z,43.70
2018-02-08T07:00:15.827Z,45.12
2018-02-08T07:02:45.221Z,46.20
2018-02-08T07:05:14.589Z,43.70
2018-02-08T07:07:44.731Z,44.75
2018-02-08T07:10:14.106Z,45.42
2018-02-08T07:12:43.452Z,47.35
2018-02-08T07:15:12.855Z,48.10
2018-02-08T07:17:42.222Z,48.53
2018-02-08T07:20:12.564Z,46.63
2018-02-08T07:22:41.930Z,45.35
2018-02-08T07:25:12.044Z,43.75
2018-02-08T07:27:41.426Z,44.13
2018-02-08T07:30:10.802Z,46.63
2018-02-08T07:32:40.203Z,46.40
2018-02-08T07:35:09.566Z,47.88
2018-02-08T07:37:39.714Z,49.08
2018-02-08T07:40:09.078Z,45.67
2018-02-08T07:42:39.229Z,46.10
2018-02-08T07:45:08.604Z,45.88
2018-02-08T07:47:39.105Z,46.80
2018-02-08T07:50:08.467Z,44.10
2018-02-08T07:52:37.879Z,45.60
2018-02-08T07:55:07.256Z,47.95
2018-02-08T07:57:36.608Z,47.20
2018-02-08T08:00:06.146Z,47.95
2018-02-08T08:02:36.274Z,49.78
2018-02-08T08:05:06.469Z,47.25
2018-02-08T08:07:35.830Z,46.80
2018-02-08T08:10:05.280Z,46.53
2018-02-08T08:12:35.420Z,48.67
2018-02-08T08:15:05.566Z,46.92
2018-02-08T08:17:34.919Z,49.03
2018-02-08T08:20:04.291Z,50.58
2018-02-08T08:22:33.700Z,50.00
2018-02-08T08:25:03.215Z,48.95
2018-02-08T08:27:32.569Z,47.72
2018-02-08T08:30:01.957Z,47.60
2018-02-08T08:32:32.069Z,45.60
2018-02-08T08:35:02.215Z,46.92
2018-02-08T08:37:31.559Z,51.92
2018-02-08T08:40:00.938Z,51.50
2018-02-08T08:42:30.328Z,47.50
2018-02-08T08:45:00.549Z,48.67
2018-02-08T08:47:29.921Z,47.25
2018-02-08T08:50:00.131Z,52.88
2018-02-08T08:52:30.260Z,48.10
2018-02-08T08:55:00.406Z,51.95
2018-02-08T08:57:29.775Z,50.40
2018-02-08T08:59:59.931Z,47.70
2018-02-08T09:02:29.297Z,48.53
2018-02-08T09:04:59.477Z,48.90
2018-02-08T09:07:28.997Z,49.85
2018-02-08T09:09:58.379Z,49.72
2018-02-08T09:12:27.743Z,50.03
2018-02-08T09:14:57.922Z,50.88
2018-02-08T09:17:27.415Z,49.60
2018-02-08T09:19:56.786Z,47.28
2018-02-08T09:22:26.151Z,49.78
2018-02-08T09:24:55.532Z,48.92
2018-02-08T09:27:24.883Z,47.65
2018-02-08T09:29:54.238Z,50.10
2018-02-08T09:32:23.621Z,49.88
2018-02-08T09:34:52.983Z,52.47
2018-02-08T09:37:23.133Z,48.60
2018-02-08T09:39:52.493Z,49.42
2018-02-08T09:42:22.658Z,50.55
2018-02-08T09:44:52.017Z,50.12
2018-02-08T09:47:22.157Z,51.00
2018-02-08T09:49:51.531Z,48.08
2018-02-08T09:52:20.911Z,49.65
2018-02-08T09:54:50.322Z,53.38
2018-02-08T09:57:19.707Z,50.10
2018-02-08T09:59:49.073Z,52.25
2018-02-08T10:02:18.454Z,49.30
2018-02-08T10:04:48.799Z,51.08
2018-02-08T10:07:18.166Z,51.63
2018-02-08T10:09:47.524Z,55.22
2018-02-08T10:12:16.924Z,50.03
2018-02-08T10:14:46.293Z,54.20
2018-02-08T10:17:16.477Z,49.17
2018-02-08T10:19:45.842Z,50.63
2018-02-08T10:22:15.188Z,50.72
2018-02-08T10:24:44.612Z,54.25
2018-02-08T10:27:13.979Z,50.30
2018-02-08T10:29:43.338Z,51.63
2018-02-08T10:32:12.714Z,51.88
2018-02-08T10:34:42.070Z,49.90
2018-02-08T10:37:11.481Z,55.12
2018-02-08T10:39:40.828Z,51.90
2018-02-08T10:42:10.970Z,52.05
2018-02-08T10:44:40.347Z,55.22
2018-02-08T10:47:09.728Z,52.10
2018-02-08T10:49:39.150Z,50.75
2018-02-08T10:52:08.514Z,50.63
2018-02-08T10:54:37.915Z,50.75
2018-02-08T10:57:07.269Z,53.33
2018-02-08T10:59:36.624Z,50.78
2018-02-08T11:02:06.010Z,52.38
2018-02-08T11:04:35.361Z,50.55
2018-02-08T11:07:05.537Z,54.22
2018-02-08T11:09:34.919Z,50.05
2018-02-08T11:12:04.304Z,46.90
2018-02-08T11:14:34.492Z,51.90
2018-02-08T11:17:03.873Z,49.53
2018-02-08T11:19:33.237Z,50.05
2018-02-08T11:22:02.592Z,49.20
2018-02-08T11:24:31.987Z,51.08
2018-02-08T11:27:01.353Z,47.92
2018-02-08T11:29:30.747Z,52.70
2018-02-08T11:32:00.133Z,49.33
2018-02-08T11:34:30.298Z,46.75
2018-02-08T11:36:59.786Z,50.30
2018-02-08T11:39:29.164Z,50.70
2018-02-08T11:41:58.519Z,48.15
2018-02-08T11:44:28.021Z,49.20
2018-02-08T11:46:57.380Z,50.58
2018-02-08T11:49:26.739Z,48.55
2018-02-08T11:51:56.122Z,50.97
2018-02-08T11:54:25.492Z,52.13
2018-02-08T11:56:54.925Z,48.42
2018-02-08T11:59:24.334Z,49.67
2018-02-08T12:01:53.683Z,46.92
2018-02-08T12:04:23.080Z,48.10
2018-02-08T12:06:53.222Z,47.50
2018-02-08T12:09:22.603Z,49.40
2018-02-08T12:11:51.984Z,46.60
2018-02-08T12:14:22.287Z,47.45
2018-02-08T12:16:51.697Z,51.03
2018-02-08T12:19:21.070Z,47.17
2018-02-08T12:21:50.428Z,50.95
2018-02-08T12:24:20.579Z,48.47
2018-02-08T12:26:49.964Z,50.22
2018-02-08T12:29:20.086Z,50.47
2018-02-08T12:31:50.228Z,45.33
2018-02-08T12:34:19.581Z,49.72
2018-02-08T12:36:48.988Z,48.20
2018-02-08T12:39:19.174Z,46.95
2018-02-08T12:41:48.548Z,46.47
2018-02-08T12:44:17.887Z,47.17
2018-02-08T12:46:47.254Z,52.28
2018-02-08T12:49:16.620Z,47.38
2018-02-08T12:51:46.027Z,48.65
2018-02-08T12:54:15.377Z,49.70
2018-02-08T12:56:44.739Z,51.37
2018-02-08T12:59:14.918Z,49.80
2018-02-08T13:01:44.303Z,51.60
2018-02-08T13:04:13.651Z,50.50
2018-02-08T13:06:43.007Z,50.45
2018-02-08T13:09:12.518Z,48.95
2018-02-08T13:11:41.867Z,50.72
2018-02-08T13:14:12.029Z,51.35
2018-02-08T13:16:41.371Z,52.88
2018-02-08T13:19:10.738Z,51.88
2018-02-08T13:21:40.120Z,50.88
2018-02-08T13:24:09.505Z,52.92
2018-02-08T13:26:39.646Z,51.70
2018-02-08T13:29:09.009Z,51.22
2018-02-08T13:31:40.872Z,52.53
2018-02-08T13:34:10.240Z,48.72
2018-02-08T13:36:39.839Z,50.45
2018-02-08T13:39:09.192Z,49.05
2018-02-08T13:41:38.551Z,50.22
2018-02-08T13:44:07.930Z,50.95
2018-02-08T13:46:37.277Z,52.65
2018-02-08T13:52:26.291Z,51.72
2018-02-08T13:58:20.096Z,52.13
2018-02-08T14:00:52.992Z,52.90
2018-02-08T14:03:22.368Z,51.25
2018-02-08T14:05:52.512Z,52.78
2018-02-08T14:08:21.854Z,52.92
2018-02-08T14:10:51.223Z,54.03
2018-02-08T14:13:20.584Z,55.00
2018-02-08T14:15:50.715Z,52.47
2018-02-08T14:18:20.070Z,55.12
2018-02-08T14:20:49.443Z,54.88
2018-02-08T14:23:18.818Z,55.22
2018-02-08T14:25:48.946Z,52.35
2018-02-08T14:28:18.287Z,50.30
2018-02-08T14:30:47.680Z,53.60
2018-02-08T14:33:17.596Z,48.85
2018-02-08T14:35:46.985Z,48.95
2018-02-08T14:38:16.342Z,48.50
2018-02-08T14:40:45.727Z,50.78
2018-02-08T14:43:15.095Z,52.35
2018-02-08T14:45:44.451Z,53.92
2018-02-08T14:48:13.832Z,50.03
2018-02-08T14:50:43.945Z,52.05
2018-02-08T14:53:13.321Z,50.00
2018-02-08T14:55:42.681Z,48.55
2018-02-08T14:58:12.056Z,50.05
2018-02-08T15:00:41.432Z,53.92
2018-02-08T15:03:10.796Z,51.13
2018-02-08T15:05:40.904Z,51.45
2018-02-08T15:08:11.035Z,52.28
2018-02-08T15:10:41.182Z,49.47
2018-02-08T15:13:10.535Z,51.92
2018-02-08T15:15:39.933Z,50.63
2018-02-08T15:18:09.296Z,52.83
2018-02-08T15:20:38.674Z,51.60
2018-02-08T15:23:08.031Z,50.40
2018-02-08T15:25:37.455Z,51.05
2018-02-08T15:28:06.823Z,51.75
2018-02-08T15:30:36.222Z,53.42
2018-02-08T15:33:05.601Z,50.40
2018-02-08T15:35:35.755Z,53.60
2018-02-08T15:38:05.102Z,49.15
2018-02-08T15:40:35.239Z,51.60
2018-02-08T15:43:04.606Z,50.92
2018-02-08T15:45:33.973Z,50.15
2018-02-08T15:48:03.342Z,50.45
2018-02-08T15:50:32.694Z,52.80
2018-02-08T15:53:02.064Z,52.50
2018-02-08T15:55:31.424Z,50.00
2018-02-08T15:58:01.541Z,53.67
2018-02-08T16:00:31.661Z,52.90
2018-02-08T16:03:01.809Z,51.67
2018-02-08T16:05:31.158Z,53.45
2018-02-08T16:08:00.539Z,48.55
2018-02-08T16:10:29.889Z,52.53
2018-02-08T16:13:00.041Z,56.47
2018-02-08T16:15:29.385Z,52.20
2018-02-08T16:17:58.735Z,51.63
2018-02-08T16:20:28.113Z,53.65
2018-02-08T16:22:58.267Z,52.97
2018-02-08T16:25:27.623Z,53.25
2018-02-08T16:27:56.987Z,53.25
2018-02-08T16:30:26.353Z,50.30
2018-02-08T16:32:55.720Z,53.38
2018-02-08T16:35:25.106Z,53.65
2018-02-08T16:37:54.450Z,53.80
2018-02-08T16:40:24.576Z,52.50
2018-02-08T16:42:54.729Z,53.63
2018-02-08T16:45:24.087Z,50.97
2018-02-08T16:47:53.460Z,56.35
2018-02-08T16:50:22.812Z,52.42
2018-02-08T16:52:52.165Z,51.33
2018-02-08T16:55:22.078Z,50.38
2018-02-08T16:57:51.465Z,49.78
2018-02-08T17:00:20.828Z,49.97
2018-02-08T17:02:50.963Z,49.58
2018-02-08T17:05:20.325Z,55.15
2018-02-08T17:07:49.708Z,49.92
2018-02-08T17:10:19.069Z,48.72
2018-02-08T17:12:48.408Z,51.95
2018-02-08T17:15:17.795Z,51.70
2018-02-08T17:17:47.175Z,52.53
2018-02-08T17:20:16.528Z,49.35
2018-02-08T17:22:45.889Z,50.08
2018-02-08T17:25:15.242Z,49.40
2018-02-08T17:27:44.615Z,54.50
2018-02-08T17:30:13.993Z,50.85
2018-02-08T17:32:43.340Z,52.30
2018-02-08T17:35:12.694Z,52.13
2018-02-08T17:37:42.058Z,49.33
2018-02-08T17:40:12.200Z,51.50
2018-02-08T17:42:41.562Z,50.25
2018-02-08T17:45:10.934Z,49.17
2018-02-08T17:47:40.308Z,52.78
2018-02-08T17:50:09.700Z,49.53
2018-02-08T17:52:39.823Z,55.75
2018-02-08T17:55:09.175Z,49.03
2018-02-08T17:57:38.550Z,49.45
2018-02-08T18:00:07.902Z,51.03
2018-02-08T18:02:37.305Z,50.53
2018-02-08T18:05:06.656Z,52.13
2018-02-08T18:07:36.019Z,53.87
2018-02-08T18:10:06.139Z,50.47
2018-02-08T18:12:36.284Z,50.88
2018-02-08T18:15:05.630Z,50.33
2018-02-08T18:17:35.001Z,50.83
2018-02-08T18:20:04.447Z,49.28
2018-02-08T18:22:33.803Z,51.55
2018-02-08T18:25:03.179Z,50.83
2018-02-08T18:27:33.300Z,52.45
2018-02-08T18:30:02.676Z,47.00
2018-02-08T18:32:32.068Z,49.40
2018-02-08T18:35:01.513Z,50.33
2018-02-08T18:37:30.884Z,50.70
2018-02-08T18:40:00.300Z,49.75
2018-02-08T18:42:29.721Z,48.50
2018-02-08T18:44:59.325Z,48.70
2018-02-08T18:47:30.481Z,49.13
2018-02-08T18:50:00.835Z,51.65
2018-02-08T18:52:30.334Z,50.60
2018-02-08T18:54:59.756Z,51.65
2018-02-08T18:57:29.224Z,51.37
2018-02-08T18:59:58.603Z,52.85
2018-02-08T19:02:28.715Z,52.35
2018-02-08T19:04:58.063Z,51.05
2018-02-08T19:07:27.398Z,53.10
2018-02-08T19:09:57.254Z,50.10
2018-02-08T19:12:26.615Z,49.80
2018-02-08T19:14:55.954Z,54.45
2018-02-08T19:17:25.310Z,51.58
2018-02-08T19:19:54.660Z,49.75
2018-02-08T19:22:24.035Z,50.05
2018-02-08T19:24:53.379Z,52.22
2018-02-08T19:27:22.755Z,53.10
2018-02-08T19:29:52.098Z,51.83
2018-02-08T19:32:21.469Z,50.33
2018-02-08T19:34:50.844Z,50.88
2018-02-08T19:37:20.214Z,51.75
2018-02-08T19:39:49.579Z,50.88
2018-02-08T19:42:18.977Z,51.53
2018-02-08T19:44:48.534Z,53.20
2018-02-08T19:47:17.883Z,51.10
2018-02-08T19:49:47.251Z,51.08
2018-02-08T19:52:16.586Z,53.17
2018-02-08T19:54:45.932Z,51.10
2018-02-08T19:57:15.294Z,49.33
2018-02-08T19:59:44.647Z,52.47
2018-02-08T20:02:14.182Z,51.67
2018-02-08T20:04:44.305Z,50.30
2018-02-08T20:07:13.696Z,51.28
2018-02-08T20:09:43.826Z,51.03
2018-02-08T20:12:13.981Z,50.60
2018-02-08T20:14:54.066Z,53.40
2018-02-08T20:17:23.429Z,49.97
2018-02-08T20:19:52.796Z,51.53
2018-02-08T20:22:23.123Z,50.42
2018-02-08T20:24:53.316Z,48.00
2018-02-08T20:27:22.685Z,50.45
2018-02-08T20:29:52.040Z,50.33
2018-02-08T20:32:22.197Z,50.80
2018-02-08T20:34:51.560Z,49.75
2018-02-08T20:37:20.909Z,50.97
2018-02-08T20:39:50.297Z,49.70
2018-02-08T20:42:25.048Z,49.38
2018-02-08T20:44:55.055Z,51.42
2018-02-08T20:47:24.416Z,49.35
2018-02-08T20:50:00.173Z,54.22
2018-02-08T20:52:30.280Z,49.65
2018-02-08T20:55:00.411Z,49.90
2018-02-08T20:57:29.784Z,48.45
2018-02-08T20:59:59.132Z,50.10
2018-02-08T21:02:28.501Z,48.33
2018-02-08T21:04:57.869Z,51.90
2018-02-08T21:07:27.234Z,52.70
2018-02-08T21:09:57.385Z,51.17
2018-02-08T21:12:26.746Z,55.00
2018-02-08T21:14:56.122Z,53.50
2018-02-08T21:17:25.496Z,54.55
2018-02-08T21:19:54.845Z,52.47
2018-02-08T21:22:25.004Z,54.47
2018-02-08T21:24:54.363Z,59.53
2018-02-08T21:27:24.538Z,60.78
2018-02-08T21:29:53.917Z,56.75
2018-02-08T21:32:23.267Z,60.25
2018-02-08T21:34:52.635Z,55.00
2018-02-08T21:37:22.915Z,53.90
2018-02-08T21:39:53.070Z,52.55
2018-02-08T21:42:22.461Z,52.45
2018-02-08T21:44:51.826Z,51.65
2018-02-08T21:47:21.180Z,49.35
2018-02-08T21:49:50.573Z,49.30
2018-02-08T21:52:19.924Z,48.05
2018-02-08T21:54:49.420Z,51.72
2018-02-08T21:57:18.777Z,51.90
2018-02-08T21:59:48.147Z,51.10
2018-02-08T22:02:18.507Z,50.38
2018-02-08T22:04:47.864Z,49.20
2018-02-08T22:07:17.255Z,47.38
2018-02-08T22:09:46.601Z,50.58
2018-02-08T22:12:15.966Z,49.20
2018-02-08T22:14:45.384Z,51.75
2018-02-08T22:17:14.756Z,51.95
2018-02-08T22:19:44.111Z,50.53
2018-02-08T22:22:13.491Z,52.33
2018-02-08T22:24:43.606Z,52.20
2018-02-08T22:27:12.968Z,50.70
2018-02-08T22:29:42.325Z,50.80
2018-02-08T22:32:12.455Z,50.38
2018-02-08T22:34:42.579Z,51.90
2018-02-08T22:37:11.967Z,54.05
2018-02-08T22:39:42.716Z,52.17
2018-02-08T22:42:12.073Z,50.35
2018-02-08T22:44:41.447Z,47.60
2018-02-08T22:47:10.787Z,48.87
2018-02-08T22:49:40.157Z,53.13
2018-02-08T22:52:09.528Z,52.38
2018-02-08T22:54:38.904Z,52.30
2018-02-08T22:57:09.030Z,51.42
2018-02-08T22:59:39.182Z,54.85
2018-02-08T23:02:08.541Z,55.15
2018-02-08T23:04:37.906Z,53.42
2018-02-08T23:07:07.270Z,53.78
2018-02-08T23:09:36.666Z,52.38
2018-02-08T23:12:06.796Z,53.30
2018-02-08T23:14:36.174Z,52.45
2018-02-08T23:17:06.304Z,50.65
2018-02-08T23:19:36.435Z,53.33
2018-02-08T23:22:05.799Z,52.95
2018-02-08T23:24:35.172Z,54.90
2018-02-08T23:27:04.540Z,53.25
2018-02-08T23:29:33.908Z,53.47
2018-02-08T23:32:03.274Z,51.35
2018-02-08T23:34:32.635Z,54.15
2018-02-08T23:37:02.756Z,56.00
2018-02-08T23:39:32.891Z,53.05
2018-02-08T23:42:02.291Z,50.30
2018-02-08T23:44:31.656Z,53.00
2018-02-08T23:47:01.007Z,53.90
2018-02-08T23:49:30.375Z,55.85
2018-02-08T23:52:00.521Z,53.58
2018-02-08T23:54:30.303Z,52.25
2018-02-08T23:57:00.441Z,53.63
2018-02-08T23:59:31.371Z,53.10
